Flight Track Log - Related Links

Times and Time Zones

All times are in EDT time to prevent confusion due to time zone crossing. See the N130RC flight status page for this flight to view local times or setup timezone preferences in your user account.


Time Position Orientation Groundspeed Altitude Reporting Facility
EDT Latitude Longitude Course Direction KTS MPH feet Rate Location/Type
Thu 01:57:06 PM 45.5556 -122.9681 North 96 110 1,000  Level Seattle Center
Thu 01:57:43 PM 45.5503 -122.9856 247° West 130 150 1,600 990 Climbing Seattle Center
Thu 01:58:43 PM 45.5178 -122.9739 166° South 107 123 2,600 992 Climbing Seattle Center
Thu 01:59:44 PM 45.4889 -122.9703 175° South 114 131 3,600 966 Climbing Seattle Center
Thu 02:00:10 PM 45.4842 -122.9825 241° Southwest 119 137 4,000 448 Climbing Seattle Center
Thu 02:00:51 PM 45.4997 -123.0150 304° West 135 155 4,100 98 Climbing Seattle Center
Thu 02:01:11 PM 45.5047 -123.0228 313° West 134 154 4,100  Level Seattle Center
Thu 02:01:52 PM 45.5308 -123.0519 322° Northwest 146 168 4,100 -98 Level Seattle Center
Thu 02:02:00 PM 45.5406 -122.9502 North  Level Estimated
Thu 02:02:12 PM 45.5364 -123.0567 329° Northwest 142 163 4,000  Level Seattle Center
Thu 02:02:53 PM 45.5614 -123.0858 321° Northwest 146 168 4,000  Level Seattle Center
Thu 02:03:13 PM 45.5747 -123.0997 324° Northwest 145 167 4,000  Level Seattle Center
Thu 02:03:53 PM 45.5944 -123.1219 322° Northwest 143 165 4,000  Level Seattle Center
Thu 02:04:15 PM 45.6053 -123.1350 320° Northwest 143 165 4,000  Level Seattle Center
Thu 02:04:54 PM 45.6256 -123.1589 321° Northwest 140 161 4,000  Level Seattle Center
Thu 02:05:16 PM 45.6344 -123.1697 320° Northwest 141 162 4,000  Level Seattle Center
Thu 02:05:49 PM 45.6508 -123.1889 321° Northwest 130 150 4,000  Level Seattle Center
Thu 02:06:17 PM 45.6625 -123.2025 321° Northwest 135 155 4,000 -393 Level Seattle Center
Thu 02:06:50 PM 45.6881 -123.2019 North 146 168 3,600 -492 Descending Seattle Center
Thu 02:07:18 PM 45.7000 -123.1961 19° North 137 158 3,500 -83 Descending Seattle Center
Thu 02:08:02 PM 45.7217 -123.1853 19° North 126 145 3,500  Level Seattle Center
Thu 02:08:19 PM 45.7203 -123.1739 100° East 132 152 3,500 109 Level Seattle Center
Thu 02:08:57 PM 45.7083 -123.1506 126° Southeast 106 122 3,600 98 Climbing Seattle Center
Thu 02:09:20 PM 45.7031 -123.1425 133° Southeast 112 129 3,600 -98 Level Seattle Center
Thu 02:09:58 PM 45.6919 -123.1108 117° Southeast 121 139 3,500  Descending Seattle Center
Thu 02:10:22 PM 45.6869 -123.0997 123° Southeast 114 131 3,600 -455 Climbing Seattle Center
Thu 02:11:04 PM 45.6633 -123.0758 145° Southeast 117 135 3,000 -787 Descending Seattle Center
Thu 02:11:23 PM 45.6589 -123.0719 149° Southeast 121 139 2,800 -655 Descending Seattle Center
Thu 02:11:59 PM 45.6378 -123.0553 151° Southeast 112 129 2,400 -590 Descending Seattle Center
Thu 02:12:24 PM 45.6325 -123.0481 136° Southeast 119 137 2,200 -393 Descending Seattle Center
Thu 02:13:00 PM 45.6181 -123.0325 143° Southeast 106 122 2,000 -492 Descending Seattle Center
Thu 02:13:25 PM 45.6050 -123.0178 142° Southeast 111 128 1,700 -492 Descending Seattle Center
Thu 02:14:01 PM 45.5958 -123.0075 142° Southeast 104 120 1,500 -590 Descending Seattle Center
Thu 02:14:26 PM 45.5814 -122.9925 144° Southeast 108 124 1,100 -800 Descending Seattle Center
Thu 02:15:01 PM 45.5664 -122.9792 148° Southeast 106 122 700 -492 Descending Seattle Center
Thu 02:15:27 PM 45.5625 -122.9733 134° Southeast 107 123 600 -90 Descending Seattle Center
Thu 02:16:08 PM 45.5594 -122.9664 122° Southeast 105 121 600 453 Level Seattle Center
Thu 02:16:20 PM 45.5389 -122.9500 151° Southeast 111 128 1,000 1,714 Climbing Seattle Center
Thu 02:16:29 PM 45.5353 -122.9450 136° Southeast 104 120 1,200 1,250 Climbing Seattle Center
Thu 02:16:44 PM 45.5281 -122.9392 150° Southeast 116 133 1,500 885 Climbing Seattle Center
Thu 02:17:30 PM 45.5047 -122.9425 186° South 111 128 2,100 787 Climbing Seattle Center
Thu 02:17:45 PM 45.4969 -122.9456 195° South 118 136 2,300 984 Climbing Seattle Center
Thu 02:18:31 PM 45.4797 -122.9658 220° Southwest 112 129 3,100 984 Climbing Seattle Center
Thu 02:18:46 PM 45.4864 -122.9803 303° West 116 133 3,300 787 Climbing Seattle Center
Thu 02:19:32 PM 45.5061 -122.9956 332° Northwest 115 132 3,900 689 Climbing Seattle Center
Thu 02:19:47 PM 45.5153 -123.0058 322° Northwest 124 143 4,000 98 Climbing Seattle Center
Thu 02:20:33 PM 45.5361 -123.0264 325° Northwest 128 147 4,000 200 Level Seattle Center
Thu 02:20:47 PM 45.5478 -123.0389 323° Northwest 145 167 4,200 590 Climbing Seattle Center
Thu 02:21:34 PM 45.5650 -123.0589 321° Northwest 131 151 4,600 590 Climbing Seattle Center
Thu 02:21:48 PM 45.5733 -123.0689 320° Northwest 106 122 4,800 295 Climbing Seattle Center
Thu 02:22:35 PM 45.5883 -123.0869 320° Northwest 120 138 4,900 197 Climbing Seattle Center
Thu 02:22:49 PM 45.5981 -123.0958 327° Northwest 113 130 5,000 197 Climbing Seattle Center
Thu 02:23:36 PM 45.6144 -123.1164 319° Northwest 118 136 5,100 98 Climbing Seattle Center
Thu 02:23:50 PM 45.6264 -123.1308 320° Northwest 132 152 5,100 -97 Level Seattle Center
Thu 02:24:38 PM 45.6481 -123.1569 320° Northwest 128 147 5,000 -197 Descending Seattle Center
Thu 02:24:51 PM 45.6550 -123.1656 319° Northwest 136 157 4,900  Descending Seattle Center
Thu 02:25:39 PM 45.6769 -123.1908 321° Northwest 133 153 5,000 100 Climbing Seattle Center
Thu 02:25:51 PM 45.6803 -123.1956 315° West 118 136 5,000  Level Seattle Center
Thu 02:26:40 PM 45.6989 -123.2158 323° Northwest 114 131 5,000 -197 Level Seattle Center
Thu 02:26:52 PM 45.7044 -123.2200 332° Northwest 106 122 4,800 -393 Descending Seattle Center
Thu 02:27:41 PM 45.7308 -123.2119 12° North 121 139 4,600 -295 Descending Seattle Center
Thu 02:27:53 PM 45.7386 -123.2064 26° Northeast 127 146 4,500 -98 Descending Seattle Center
Thu 02:28:42 PM 45.7356 -123.1717 97° East 134 154 4,500 -98 Level Seattle Center
Thu 02:28:54 PM 45.7303 -123.1633 132° Southeast 129 148 4,400 -83 Descending Seattle Center
Thu 02:29:54 PM 45.7058 -123.1269 134° Southeast 124 143 4,400 -198 Level Seattle Center
Thu 02:30:55 PM 45.6836 -123.1017 142° Southeast 94 108 4,000 -429 Descending Seattle Center
Thu 02:31:46 PM 45.6672 -123.0836 142° Southeast 113 130 3,600 -590 Descending Seattle Center
Thu 02:31:56 PM 45.6614 -123.0767 140° Southeast 104 120 3,400 -787 Descending Seattle Center
Thu 02:32:47 PM 45.6433 -123.0597 147° Southeast 108 124 2,800 -885 Descending Seattle Center
Thu 02:32:57 PM 45.6350 -123.0533 152° Southeast 111 128 2,500 -787 Descending Seattle Center
Thu 02:33:48 PM 45.6186 -123.0339 140° Southeast 108 124 2,000 -590 Descending Seattle Center
Thu 02:33:58 PM 45.6147 -123.0275 131° Southeast 110 127 1,900 -787 Descending Seattle Center
Thu 02:34:49 PM 45.5894 -123.0025 145° Southeast 109 125 1,200 -700 Descending Seattle Center
Thu 02:34:58 PM 45.5906 -123.0033 332° Northwest 110 127 1,200 -484 Level Seattle Center
Thu 02:35:51 PM 45.5661 -122.9783 144° Southeast 108 124 700 -492 Descending Seattle Center
Thu 02:35:59 PM 45.5664 -122.9792 295° West 106 122 700 295 Level Seattle Center
Thu 02:36:52 PM 45.5433 -122.9556 144° Southeast 105 121 1,000 333 Climbing Seattle Center
Thu 02:36:53 PM 45.5425 -122.9578 242° Southwest 110 127 1,000 1,059 Level Seattle Center
Thu 02:38:00 PM 45.5106 -122.9492 169° South 109 125 2,200 1,041 Climbing Seattle Center
Thu 02:38:54 PM 45.4881 -122.9658 207° Southwest 107 123 3,100 1,082 Climbing Seattle Center
Thu 02:39:01 PM 45.4906 -122.9789 285° West 128 147 3,300 885 Climbing Seattle Center
Thu 02:39:55 PM 45.5119 -122.9961 331° Northwest 114 131 4,000 689 Climbing Seattle Center
Thu 02:40:02 PM 45.5189 -123.0014 332° Northwest 117 135 4,000  Level Seattle Center
Thu 02:40:57 PM 45.5428 -123.0258 324° Northwest 125 144 4,000  Level Seattle Center
Thu 02:41:02 PM 45.5514 -123.0344 325° Northwest 147 169 4,000  Level Seattle Center
Thu 02:41:58 PM 45.5761 -123.0589 325° Northwest 139 160 4,000  Level Seattle Center
Thu 02:42:03 PM 45.5839 -123.0678 321° Northwest 145 167 4,000  Level Seattle Center
Thu 02:42:59 PM 45.6081 -123.0950 322° Northwest 145 167 4,000  Level Seattle Center
Thu 02:43:10 PM 45.6169 -123.1036 326° Northwest 144 166 4,000  Level Seattle Center
Thu 02:44:00 PM 45.6394 -123.1269 324° Northwest 143 165 4,000  Level Seattle Center
Thu 02:44:10 PM 45.6494 -123.1369 325° Northwest 129 148 4,000  Level Seattle Center
Thu 02:45:02 PM 45.6711 -123.1633 320° Northwest 129 148 4,000  Level Seattle Center
Thu 02:45:11 PM 45.6767 -123.1661 341° North 118 136 4,000  Level Seattle Center
Thu 02:46:06 PM 45.6964 -123.1892 321° Northwest 114 131 4,000 -53 Level Seattle Center
Thu 02:47:04 PM 45.7225 -123.2158 325° Northwest 115 132 3,900 90 Descending Seattle Center
Thu 02:47:13 PM 45.7286 -123.2103 32° Northeast 120 138 4,100 87 Climbing Seattle Center
Thu 02:48:13 PM 45.7142 -123.1697 117° Southeast 116 133 4,000 -265 Descending Seattle Center
Thu 02:49:06 PM 45.6994 -123.1369 123° Southeast 117 135 3,600 -436 Descending Seattle Center
Thu 02:49:08 PM 45.6978 -123.1300 109° East 136 157 3,600 -194 Level Seattle Center
Thu 02:50:08 PM 45.6756 -123.0919 130° Southeast 129 148 3,400 -448 Descending Seattle Center
Thu 02:50:15 PM 45.6675 -123.0867 155° Southeast 135 155 3,100 -590 Descending Seattle Center
Thu 02:51:09 PM 45.6478 -123.0628 140° Southeast 131 151 2,800 -500 Descending Seattle Center
Thu 02:51:15 PM 45.6428 -123.0594 155° Southeast 107 123 2,600 -689 Descending Seattle Center
Thu 02:52:10 PM 45.6233 -123.0386 143° Southeast 121 139 2,100 -689 Descending Seattle Center
Thu 02:52:16 PM 45.6186 -123.0353 154° Southeast 112 129 1,900 -590 Descending Seattle Center
Thu 02:53:11 PM 45.6006 -123.0128 139° Southeast 113 130 1,500 -448 Descending Seattle Center
Thu 02:53:23 PM 45.5958 -123.0075 142° Southeast 109 125 1,400 -484 Descending Seattle Center
Thu 02:54:13 PM 45.5783 -122.9886 143° Southeast 107 123 1,000 -636 Descending Seattle Center
Thu 02:54:29 PM 45.5689 -122.9811 151° Southeast 100 115 700 -590 Descending Seattle Center
Thu 02:55:14 PM 45.5556 -122.9658 141° Southeast 104 120 400  Descending Seattle Center
Thu 02:55:18 PM 45.5606 -122.9722 318° Northwest 99 114 700 4,500 Climbing Seattle Center

Login

Don't have an account? Register now (free) for customized features, flight alerts, and more!